createdAt,value
2023-05-12T00:02:24.450Z,15.35
2023-05-12T00:04:51.633Z,15.30
2023-05-12T00:07:18.958Z,15.31
2023-05-12T00:09:46.044Z,15.31
2023-05-12T00:12:13.348Z,15.31
2023-05-12T00:14:40.496Z,15.32
2023-05-12T00:17:07.732Z,15.30
2023-05-12T00:19:35.964Z,15.23
2023-05-12T00:22:03.329Z,15.17
2023-05-12T00:24:30.649Z,15.11
2023-05-12T00:26:57.748Z,15.10
2023-05-12T00:29:24.749Z,15.05
2023-05-12T00:31:51.796Z,15.03
2023-05-12T00:34:18.869Z,15.01
2023-05-12T00:36:45.854Z,14.99
2023-05-12T00:39:13.057Z,14.97
2023-05-12T00:41:40.190Z,14.93
2023-05-12T00:44:07.553Z,14.95
2023-05-12T00:46:34.667Z,14.94
2023-05-12T00:49:02.597Z,14.92
2023-05-12T00:51:29.917Z,14.88
2023-05-12T00:53:58.451Z,14.79
2023-05-12T00:56:25.926Z,14.71
2023-05-12T00:58:52.947Z,14.60
2023-05-12T01:01:20.457Z,14.53
2023-05-12T01:03:47.662Z,14.52
2023-05-12T01:06:36.233Z,14.50
2023-05-12T01:09:03.880Z,14.42
2023-05-12T01:11:30.944Z,14.38
2023-05-12T01:13:58.020Z,14.36
2023-05-12T01:16:36.689Z,14.30
2023-05-12T01:19:10.628Z,14.27
2023-05-12T01:21:38.050Z,14.22
2023-05-12T01:24:09.298Z,14.21
2023-05-12T01:26:36.481Z,14.21
2023-05-12T01:29:05.137Z,14.16
2023-05-12T01:31:33.092Z,14.11
2023-05-12T01:34:00.897Z,14.06
2023-05-12T01:36:27.968Z,14.01
2023-05-12T01:38:55.810Z,14.00
2023-05-12T01:41:22.776Z,14.00
2023-05-12T01:43:50.947Z,13.96
2023-05-12T01:46:18.133Z,13.99
2023-05-12T01:48:45.357Z,14.01
2023-05-12T01:51:12.380Z,14.02
2023-05-12T01:53:39.432Z,14.01
2023-05-12T01:56:06.660Z,14.00
2023-05-12T01:58:33.697Z,13.97
2023-05-12T02:01:00.702Z,13.95
2023-05-12T02:03:27.773Z,13.89
2023-05-12T02:05:54.844Z,13.84
2023-05-12T02:08:21.864Z,13.84
2023-05-12T02:10:48.829Z,13.83
2023-05-12T02:13:15.805Z,13.84
2023-05-12T02:15:42.739Z,13.80
2023-05-12T02:18:09.861Z,13.77
2023-05-12T02:20:36.873Z,13.77
2023-05-12T02:23:03.906Z,13.75
2023-05-12T02:25:30.960Z,13.74
2023-05-12T02:27:57.989Z,13.76
2023-05-12T02:30:25.058Z,13.74
2023-05-12T02:32:52.159Z,13.71
2023-05-12T02:35:19.259Z,13.69
2023-05-12T02:37:46.305Z,13.68
2023-05-12T02:40:13.854Z,13.68
2023-05-12T02:42:41.362Z,13.66
2023-05-12T02:45:10.254Z,13.63
2023-05-12T02:47:37.481Z,13.61
2023-05-12T02:50:05.677Z,13.61
2023-05-12T02:52:32.821Z,13.63
2023-05-12T02:54:59.866Z,13.60
2023-05-12T02:57:32.911Z,13.54
2023-05-12T03:00:01.971Z,13.53
2023-05-12T03:02:29.093Z,13.52
2023-05-12T03:04:56.216Z,13.53
2023-05-12T03:07:23.383Z,13.49
2023-05-12T03:09:50.730Z,13.45
2023-05-12T03:12:17.826Z,13.38
2023-05-12T03:14:45.004Z,13.38
2023-05-12T03:17:12.330Z,13.35
2023-05-12T03:19:39.665Z,13.34
2023-05-12T03:22:09.578Z,13.34
2023-05-12T03:24:36.811Z,13.34
2023-05-12T03:27:04.052Z,13.32
2023-05-12T03:29:31.453Z,13.30
2023-05-12T03:31:58.513Z,13.31
2023-05-12T03:34:25.727Z,13.32
2023-05-12T03:36:52.778Z,13.33
2023-05-12T03:39:19.887Z,13.34
2023-05-12T03:41:46.986Z,13.32
2023-05-12T03:44:14.252Z,13.31
2023-05-12T03:46:41.744Z,13.30
2023-05-12T03:49:09.918Z,13.30
2023-05-12T03:51:37.072Z,13.30
2023-05-12T03:54:04.427Z,13.26
2023-05-12T03:56:31.736Z,13.26
2023-05-12T03:58:58.746Z,13.36
2023-05-12T04:01:26.002Z,13.40
2023-05-12T04:03:53.348Z,13.42
2023-05-12T04:06:20.722Z,13.37
2023-05-12T04:08:47.861Z,13.37
2023-05-12T04:11:14.934Z,13.34
2023-05-12T04:13:41.981Z,13.31
2023-05-12T04:16:09.929Z,13.28
2023-05-12T04:18:37.052Z,13.27
2023-05-12T04:21:04.338Z,13.27
2023-05-12T04:23:31.572Z,13.29
2023-05-12T04:25:59.433Z,13.31
2023-05-12T04:28:26.714Z,13.31
2023-05-12T04:30:53.802Z,13.31
2023-05-12T04:33:20.846Z,13.34
2023-05-12T04:35:47.876Z,13.36
2023-05-12T04:38:14.919Z,13.37
2023-05-12T04:40:42.143Z,13.35
2023-05-12T04:43:09.214Z,13.31
2023-05-12T04:45:36.393Z,13.30
2023-05-12T04:48:03.597Z,13.32
2023-05-12T04:50:30.668Z,13.32
2023-05-12T04:52:57.788Z,13.30
2023-05-12T04:55:25.021Z,13.29
2023-05-12T04:57:52.011Z,13.32
2023-05-12T05:00:19.427Z,13.31
2023-05-12T05:02:47.451Z,13.35
2023-05-12T05:05:14.588Z,13.36
2023-05-12T05:07:41.641Z,13.40
2023-05-12T05:10:09.319Z,13.41
2023-05-12T05:12:36.435Z,13.45
2023-05-12T05:15:03.681Z,13.43
2023-05-12T05:17:30.735Z,13.43
2023-05-12T05:19:59.643Z,13.45
2023-05-12T05:22:27.477Z,13.46
2023-05-12T05:24:54.884Z,13.44
2023-05-12T05:27:22.007Z,13.49
2023-05-12T05:29:49.457Z,13.51
2023-05-12T05:32:16.785Z,13.57
2023-05-12T05:34:43.943Z,13.63
2023-05-12T05:37:11.056Z,13.68
2023-05-12T05:39:40.373Z,13.69
2023-05-12T05:42:07.672Z,13.74
2023-05-12T05:44:34.772Z,13.81
2023-05-12T05:47:03.094Z,13.84
2023-05-12T05:49:30.528Z,13.95
2023-05-12T05:51:57.614Z,14.01
2023-05-12T05:54:25.486Z,14.14
2023-05-12T05:56:52.578Z,14.24
2023-05-12T05:59:19.670Z,14.30
2023-05-12T06:01:46.882Z,14.31
2023-05-12T06:04:13.957Z,14.31
2023-05-12T06:06:41.028Z,14.36
2023-05-12T06:09:09.704Z,14.42
2023-05-12T06:11:36.760Z,14.49
2023-05-12T06:14:03.832Z,14.66
2023-05-12T06:16:31.005Z,14.75
2023-05-12T06:18:58.160Z,14.90
2023-05-12T06:21:25.366Z,15.03
2023-05-12T06:23:52.586Z,15.17
2023-05-12T06:26:19.679Z,15.39
2023-05-12T06:28:46.711Z,15.64
2023-05-12T06:31:13.866Z,15.81
2023-05-12T06:33:40.953Z,15.77
2023-05-12T06:36:08.849Z,15.79
2023-05-12T06:38:35.894Z,15.87
2023-05-12T06:41:02.951Z,15.98
2023-05-12T06:43:29.966Z,16.16
2023-05-12T06:45:57.220Z,16.17
2023-05-12T06:48:24.565Z,16.10
2023-05-12T06:50:51.819Z,16.12
2023-05-12T06:53:18.946Z,16.30
2023-05-12T06:55:47.104Z,16.45
2023-05-12T06:58:14.166Z,16.58
2023-05-12T07:00:41.208Z,16.57
2023-05-12T07:03:10.342Z,16.47
2023-05-12T07:05:37.717Z,16.42
2023-05-12T07:08:05.526Z,16.45
2023-05-12T07:10:33.308Z,16.60
2023-05-12T07:13:00.424Z,16.77
2023-05-12T07:15:27.519Z,16.84
2023-05-12T07:17:55.868Z,16.94
2023-05-12T07:20:23.162Z,17.03
2023-05-12T07:22:52.184Z,17.08
2023-05-12T07:25:19.473Z,17.15
2023-05-12T07:27:46.939Z,17.34
2023-05-12T07:30:14.386Z,17.59
2023-05-12T07:32:41.496Z,17.80
2023-05-12T07:35:09.357Z,18.05
2023-05-12T07:37:36.389Z,18.20
2023-05-12T07:40:04.673Z,18.28
2023-05-12T07:42:31.794Z,18.36
2023-05-12T07:44:58.802Z,18.56
2023-05-12T07:47:26.305Z,18.70
2023-05-12T07:49:53.361Z,18.83
2023-05-12T07:52:20.396Z,18.99
2023-05-12T07:54:47.443Z,18.97
2023-05-12T07:57:14.431Z,19.01
2023-05-12T07:59:41.495Z,19.13
2023-05-12T08:02:09.077Z,19.22
2023-05-12T08:04:36.118Z,19.06
2023-05-12T08:07:03.428Z,18.89
2023-05-12T08:09:30.523Z,18.82
2023-05-12T08:11:57.500Z,18.79
2023-05-12T08:14:25.751Z,18.54
2023-05-12T08:16:52.920Z,18.37
2023-05-12T08:19:22.944Z,18.33
2023-05-12T08:21:49.903Z,18.32
2023-05-12T08:24:17.081Z,18.33
2023-05-12T08:26:44.164Z,18.38
2023-05-12T08:29:11.457Z,18.60
2023-05-12T08:31:38.997Z,18.79
2023-05-12T08:34:10.268Z,18.93
2023-05-12T08:36:39.808Z,18.94
2023-05-12T08:39:10.174Z,19.05
2023-05-12T08:42:09.636Z,19.23
2023-05-12T08:44:40.897Z,19.81
2023-05-12T08:47:09.496Z,20.14
2023-05-12T08:49:38.820Z,20.33
2023-05-12T08:52:07.798Z,20.25
2023-05-12T08:54:48.594Z,20.18
2023-05-12T08:57:23.567Z,20.39
2023-05-12T08:59:53.747Z,20.57
2023-05-12T09:02:23.625Z,20.53
2023-05-12T09:04:52.392Z,20.29
2023-05-12T09:07:20.076Z,20.07
2023-05-12T09:09:52.759Z,20.06
2023-05-12T09:12:21.368Z,20.08
2023-05-12T09:15:00.344Z,20.12
2023-05-12T09:17:27.594Z,20.27
2023-05-12T09:19:54.663Z,20.48
2023-05-12T09:22:33.634Z,20.58
2023-05-12T09:25:00.864Z,20.45
2023-05-12T09:27:29.326Z,20.52
2023-05-12T09:29:59.625Z,20.58
2023-05-12T09:32:45.362Z,20.63
2023-05-12T09:35:12.688Z,20.67
2023-05-12T09:37:40.486Z,20.75
2023-05-12T09:40:11.482Z,20.75
2023-05-12T09:42:38.930Z,20.64
2023-05-12T09:45:11.582Z,20.66
2023-05-12T09:47:40.670Z,20.75
2023-05-12T09:50:08.918Z,20.78
2023-05-12T09:52:39.975Z,20.77
2023-05-12T09:55:12.778Z,20.89
2023-05-12T09:57:42.949Z,21.09
2023-05-12T10:00:33.209Z,21.41
2023-05-12T10:03:18.537Z,21.77
2023-05-12T10:05:54.571Z,21.98
2023-05-12T10:08:56.458Z,21.90
2023-05-12T10:11:23.821Z,22.22
2023-05-12T10:13:52.124Z,22.35
2023-05-12T10:16:19.474Z,22.23
2023-05-12T10:18:47.620Z,22.54
2023-05-12T10:21:16.089Z,22.62
2023-05-12T10:23:45.758Z,22.48
2023-05-12T10:26:13.900Z,22.50
2023-05-12T10:28:42.927Z,22.72
2023-05-12T10:31:11.377Z,22.68
2023-05-12T10:33:38.405Z,22.66
2023-05-12T10:36:16.091Z,22.79
2023-05-12T10:38:43.515Z,22.69
2023-05-12T10:41:11.023Z,22.60
2023-05-12T10:43:49.593Z,22.51
2023-05-12T10:46:21.897Z,22.55
2023-05-12T10:49:04.379Z,22.50
2023-05-12T10:51:34.991Z,22.50
2023-05-12T10:54:08.172Z,22.47
2023-05-12T10:56:41.066Z,22.60
2023-05-12T10:59:20.379Z,22.68
2023-05-12T11:02:07.052Z,22.72
2023-05-12T11:04:53.382Z,22.76
2023-05-12T11:07:24.612Z,23.13
2023-05-12T11:09:57.849Z,23.38
2023-05-12T11:12:35.456Z,23.47
2023-05-12T11:15:05.775Z,23.66
2023-05-12T11:17:33.181Z,23.49
2023-05-12T11:20:01.631Z,23.10
2023-05-12T11:22:29.458Z,22.99
2023-05-12T11:24:56.542Z,22.94
2023-05-12T11:27:24.001Z,23.09
2023-05-12T11:30:03.027Z,23.31
2023-05-12T11:32:30.532Z,23.38
2023-05-12T11:35:13.003Z,23.70
2023-05-12T11:37:41.721Z,24.02
2023-05-12T11:40:21.720Z,24.22
2023-05-12T11:42:52.861Z,24.39
2023-05-12T11:45:29.894Z,24.54
2023-05-12T11:48:13.978Z,24.48
2023-05-12T11:50:46.895Z,24.29
2023-05-12T11:53:17.531Z,24.26
2023-05-12T11:55:57.397Z,24.06
2023-05-12T11:58:30.651Z,24.11
2023-05-12T12:01:10.120Z,24.20
2023-05-12T12:03:49.703Z,24.40
2023-05-12T12:06:17.936Z,24.76
2023-05-12T12:08:57.369Z,24.80
2023-05-12T12:11:30.568Z,24.76
2023-05-12T12:13:58.009Z,24.84
2023-05-12T12:16:27.111Z,24.82
2023-05-12T12:18:54.581Z,24.71
2023-05-12T12:21:23.525Z,24.61
2023-05-12T12:23:52.024Z,24.56
2023-05-12T12:26:21.080Z,24.59
2023-05-12T12:28:48.669Z,24.68
2023-05-12T12:31:16.825Z,24.81
2023-05-12T12:33:43.934Z,24.76
2023-05-12T12:36:11.033Z,24.84
2023-05-12T12:38:38.113Z,24.88
2023-05-12T12:41:06.401Z,24.73
2023-05-12T12:43:33.553Z,24.31
2023-05-12T12:46:00.559Z,24.12
2023-05-12T12:48:28.952Z,24.11
2023-05-12T12:50:56.358Z,24.17
2023-05-12T12:53:23.690Z,24.44
2023-05-12T12:55:51.176Z,24.66
2023-05-12T12:58:18.299Z,24.88
2023-05-12T13:00:45.571Z,25.04
2023-05-12T13:03:12.741Z,25.17
2023-05-12T13:05:39.771Z,25.21
2023-05-12T13:08:07.474Z,25.10
2023-05-12T13:10:35.376Z,25.02
2023-05-12T13:13:02.365Z,24.95
2023-05-12T13:15:32.191Z,24.97
2023-05-12T13:17:59.588Z,24.92
2023-05-12T13:20:26.825Z,24.83
2023-05-12T13:22:53.970Z,24.78
2023-05-12T13:25:21.284Z,24.82
2023-05-12T13:27:48.754Z,24.60
2023-05-12T13:30:15.867Z,24.54
2023-05-12T13:32:43.078Z,24.72
2023-05-12T13:35:10.602Z,24.71
2023-05-12T13:37:37.840Z,24.64
2023-05-12T13:40:05.487Z,24.56
2023-05-12T13:42:32.590Z,24.63
2023-05-12T13:44:59.781Z,24.73
2023-05-12T13:47:27.508Z,24.71
2023-05-12T13:49:56.557Z,24.76
2023-05-12T13:52:23.625Z,24.80
2023-05-12T13:54:51.226Z,25.08
2023-05-12T13:57:18.315Z,25.35
2023-05-12T13:59:48.079Z,25.66
2023-05-12T14:02:15.156Z,25.74
2023-05-12T14:04:42.317Z,25.53
2023-05-12T14:07:10.071Z,25.21
2023-05-12T14:09:37.557Z,24.96
2023-05-12T14:12:05.445Z,24.68
2023-05-12T14:14:32.604Z,24.48
2023-05-12T14:16:59.599Z,24.40
2023-05-12T14:19:26.642Z,24.24
2023-05-12T14:21:53.662Z,24.05
2023-05-12T14:24:21.145Z,23.98
2023-05-12T14:26:48.182Z,23.98
2023-05-12T14:29:15.245Z,24.01
2023-05-12T14:31:42.321Z,24.22
2023-05-12T14:34:09.430Z,24.40
2023-05-12T14:36:36.506Z,24.50
2023-05-12T14:39:03.830Z,24.58
2023-05-12T14:41:30.965Z,24.63
2023-05-12T14:43:58.342Z,24.83
2023-05-12T14:46:25.846Z,25.00
2023-05-12T14:48:53.023Z,25.15
2023-05-12T14:51:20.156Z,25.32
2023-05-12T14:53:47.209Z,25.45
2023-05-12T14:56:14.389Z,25.48
2023-05-12T14:58:41.379Z,25.51
2023-05-12T15:01:09.442Z,25.47
2023-05-12T15:03:44.922Z,25.45
2023-05-12T15:06:12.820Z,25.53
2023-05-12T15:08:40.782Z,25.69
2023-05-12T15:11:07.855Z,25.76
2023-05-12T15:13:34.961Z,25.71
2023-05-12T15:16:03.024Z,25.58
2023-05-12T15:18:30.433Z,25.41
2023-05-12T15:20:57.564Z,25.31
2023-05-12T15:23:24.616Z,25.19
2023-05-12T15:25:51.848Z,25.20
2023-05-12T15:28:19.029Z,25.26
2023-05-12T15:30:56.130Z,25.33
2023-05-12T15:33:23.835Z,25.31
2023-05-12T15:35:51.137Z,25.29
2023-05-12T15:38:18.641Z,25.22
2023-05-12T15:40:47.126Z,25.09
2023-05-12T15:43:14.474Z,24.99
2023-05-12T15:45:41.505Z,24.92
2023-05-12T15:48:09.631Z,24.78
2023-05-12T15:50:37.278Z,24.62
2023-05-12T15:53:04.394Z,24.47
2023-05-12T15:55:32.336Z,24.34
2023-05-12T15:57:59.878Z,24.19
2023-05-12T16:00:27.025Z,24.70
2023-05-12T16:02:54.826Z,25.46
2023-05-12T16:05:24.148Z,26.19
2023-05-12T16:07:51.180Z,26.86
2023-05-12T16:10:18.394Z,27.47
2023-05-12T16:12:46.148Z,28.00
2023-05-12T16:15:13.493Z,28.57
2023-05-12T16:17:40.726Z,29.23
2023-05-12T16:20:09.235Z,29.91
2023-05-12T16:22:36.335Z,30.23
2023-05-12T16:25:04.958Z,29.96
2023-05-12T16:27:33.631Z,28.86
2023-05-12T16:30:00.653Z,27.52
2023-05-12T16:32:27.621Z,26.38
2023-05-12T16:34:54.850Z,25.42
2023-05-12T16:37:22.853Z,24.79
2023-05-12T16:39:49.974Z,24.34
2023-05-12T16:42:17.048Z,23.89
2023-05-12T16:44:44.031Z,23.57
2023-05-12T16:47:11.169Z,23.40
2023-05-12T16:49:38.238Z,23.15
2023-05-12T16:52:06.047Z,23.09
2023-05-12T16:54:33.212Z,22.88
2023-05-12T16:57:02.298Z,22.62
2023-05-12T16:59:32.498Z,22.35
2023-05-12T17:02:00.208Z,22.18
2023-05-12T17:04:27.449Z,22.00
2023-05-12T17:06:54.737Z,21.87
2023-05-12T17:09:23.154Z,21.78
2023-05-12T17:11:50.554Z,21.63
2023-05-12T17:14:19.442Z,21.49
2023-05-12T17:16:46.798Z,21.29
2023-05-12T17:19:14.404Z,21.11
2023-05-12T17:21:42.414Z,20.96
2023-05-12T17:24:09.611Z,20.82
2023-05-12T17:26:36.665Z,20.72
2023-05-12T17:29:03.796Z,20.64
2023-05-12T17:31:30.959Z,20.58
2023-05-12T17:33:58.081Z,20.56
2023-05-12T17:36:25.201Z,20.51
2023-05-12T17:38:52.284Z,20.49
2023-05-12T17:41:19.662Z,20.46
2023-05-12T17:43:47.008Z,20.40
2023-05-12T17:46:14.416Z,20.34
2023-05-12T17:48:41.588Z,20.31
2023-05-12T17:51:08.796Z,20.25
2023-05-12T17:53:35.953Z,20.19
2023-05-12T17:56:03.121Z,20.15
2023-05-12T17:58:30.359Z,20.07
2023-05-12T18:00:57.512Z,19.98
2023-05-12T18:03:24.824Z,19.93
2023-05-12T18:05:54.205Z,19.88
2023-05-12T18:08:21.845Z,19.87
2023-05-12T18:10:49.139Z,19.85
2023-05-12T18:13:16.293Z,19.84
2023-05-12T18:15:43.661Z,19.83
2023-05-12T18:18:10.973Z,19.80
2023-05-12T18:20:38.361Z,19.78
2023-05-12T18:23:05.564Z,19.77
2023-05-12T18:25:32.600Z,19.76
2023-05-12T18:27:59.622Z,19.76
2023-05-12T18:30:26.676Z,19.74
2023-05-12T18:32:53.985Z,19.72
2023-05-12T18:35:21.895Z,19.66
2023-05-12T18:37:49.555Z,19.61
2023-05-12T18:40:16.935Z,19.57
2023-05-12T18:42:44.146Z,19.52
2023-05-12T18:45:11.994Z,19.50
2023-05-12T18:47:39.444Z,19.47
2023-05-12T18:50:07.664Z,19.44
2023-05-12T18:52:34.796Z,19.40
2023-05-12T18:55:01.902Z,19.38
2023-05-12T18:57:29.064Z,19.34
2023-05-12T18:59:56.100Z,19.32
2023-05-12T19:02:23.140Z,19.27
2023-05-12T19:04:50.328Z,19.22
2023-05-12T19:07:17.451Z,19.19
2023-05-12T19:09:44.528Z,19.15
2023-05-12T19:12:11.853Z,19.09
2023-05-12T19:14:40.364Z,19.06
2023-05-12T19:17:07.802Z,19.01
2023-05-12T19:19:35.291Z,18.98
2023-05-12T19:22:04.430Z,18.94
2023-05-12T19:24:31.582Z,18.90
2023-05-12T19:26:58.794Z,18.85
2023-05-12T19:29:26.165Z,18.77
2023-05-12T19:31:53.716Z,18.71
2023-05-12T19:34:21.578Z,18.65
2023-05-12T19:36:48.733Z,18.61
2023-05-12T19:39:15.785Z,18.59
2023-05-12T19:41:42.938Z,18.54
2023-05-12T19:44:10.081Z,18.51
2023-05-12T19:46:37.197Z,18.48
2023-05-12T19:49:05.842Z,18.48
2023-05-12T19:51:33.136Z,18.42
2023-05-12T19:54:01.928Z,18.39
2023-05-12T19:56:29.910Z,18.30
2023-05-12T19:58:56.913Z,18.23
2023-05-12T20:01:24.304Z,18.18
2023-05-12T20:03:52.779Z,18.17
2023-05-12T20:06:20.453Z,18.13
2023-05-12T20:08:47.456Z,18.12
2023-05-12T20:11:14.441Z,18.12
2023-05-12T20:13:41.428Z,18.10
2023-05-12T20:16:09.061Z,18.09
2023-05-12T20:18:36.106Z,18.08
2023-05-12T20:21:03.512Z,18.04
2023-05-12T20:23:30.520Z,18.01
2023-05-12T20:25:57.804Z,17.98
2023-05-12T20:28:25.042Z,17.94
2023-05-12T20:30:54.713Z,17.88
2023-05-12T20:33:24.784Z,17.83
2023-05-12T20:35:54.289Z,17.78
2023-05-12T20:38:21.353Z,17.75
2023-05-12T20:40:48.558Z,17.69
2023-05-12T20:43:15.597Z,17.62
2023-05-12T20:45:43.074Z,17.56
2023-05-12T20:48:10.592Z,17.52
2023-05-12T20:50:37.773Z,17.48
2023-05-12T20:53:04.988Z,17.45
2023-05-12T20:55:35.403Z,17.42
2023-05-12T20:58:02.565Z,17.40
2023-05-12T21:00:29.607Z,17.38
2023-05-12T21:02:58.068Z,17.39
2023-05-12T21:05:25.646Z,17.40
2023-05-12T21:07:52.646Z,17.39
2023-05-12T21:10:20.267Z,17.53
2023-05-12T21:12:47.623Z,17.54
2023-05-12T21:15:14.863Z,17.54
2023-05-12T21:17:42.381Z,17.52
2023-05-12T21:20:11.827Z,17.52
2023-05-12T21:22:40.844Z,17.52
2023-05-12T21:25:09.156Z,17.52
2023-05-12T21:27:40.893Z,17.52
2023-05-12T21:30:10.246Z,17.52
2023-05-12T21:32:37.492Z,17.52
2023-05-12T21:35:05.906Z,17.50
2023-05-12T21:37:34.359Z,17.50
2023-05-12T21:40:01.588Z,17.50
2023-05-12T21:42:28.668Z,17.47
2023-05-12T21:44:56.067Z,17.48
2023-05-12T21:47:23.285Z,17.45
2023-05-12T21:49:55.374Z,17.43
2023-05-12T21:52:22.942Z,17.40
2023-05-12T21:54:49.921Z,17.34
2023-05-12T21:57:17.088Z,17.27
2023-05-12T21:59:45.026Z,17.24
2023-05-12T22:02:12.223Z,17.21
2023-05-12T22:04:39.320Z,17.17
2023-05-12T22:07:06.360Z,17.13
2023-05-12T22:09:33.518Z,17.11
2023-05-12T22:12:00.589Z,17.08
2023-05-12T22:14:27.660Z,17.03
2023-05-12T22:16:56.009Z,16.97
2023-05-12T22:19:23.245Z,16.93
2023-05-12T22:21:50.844Z,16.86
2023-05-12T22:24:17.886Z,16.81
2023-05-12T22:26:44.912Z,16.77
2023-05-12T22:29:12.054Z,16.72
2023-05-12T22:31:39.151Z,16.66
2023-05-12T22:34:06.154Z,16.58
2023-05-12T22:36:33.343Z,16.52
2023-05-12T22:39:00.537Z,16.45
2023-05-12T22:41:28.063Z,16.41
2023-05-12T22:43:55.068Z,16.31
2023-05-12T22:46:22.248Z,16.25
2023-05-12T22:48:50.861Z,16.18
2023-05-12T22:51:17.918Z,16.14
2023-05-12T22:53:44.892Z,16.12
2023-05-12T22:56:11.931Z,16.07
2023-05-12T22:58:38.896Z,16.04
2023-05-12T23:01:06.362Z,15.97
2023-05-12T23:03:33.882Z,15.93
2023-05-12T23:06:01.107Z,15.89
2023-05-12T23:08:28.099Z,15.84
2023-05-12T23:10:55.261Z,15.79
2023-05-12T23:13:22.385Z,15.76
2023-05-12T23:15:49.480Z,15.72
2023-05-12T23:18:16.466Z,15.70
2023-05-12T23:20:43.463Z,15.67
2023-05-12T23:23:11.073Z,15.68
2023-05-12T23:25:38.869Z,15.70
2023-05-12T23:28:06.577Z,15.73
2023-05-12T23:30:33.615Z,15.77
2023-05-12T23:33:00.941Z,15.82
2023-05-12T23:35:28.247Z,15.86
2023-05-12T23:37:55.225Z,15.88
2023-05-12T23:40:22.483Z,15.94
2023-05-12T23:42:49.839Z,15.99
2023-05-12T23:45:16.995Z,16.01
2023-05-12T23:47:44.220Z,16.07
2023-05-12T23:50:11.395Z,16.07
2023-05-12T23:52:38.480Z,16.11
2023-05-12T23:55:06.103Z,16.13
2023-05-12T23:57:33.119Z,16.16
